Time;durP1;ratioP1;P1;durP2;ratioP2;P2;SDS_P1;SDS_P2;PMS_P1;PMS_P2;Temp;Humidity;BMP_temperature;BMP_pressure;BME280_temperature;BME280_humidity;BME280_pressure;Samples;Min_cycle;Max_cycle;Signal;HPM_P1;HPM_P2
2022/11/03 00:01:39;;;;;;;102.10;42.88;;;;;;;14.37;100.00;101374.63;5047861;28;20361;-86
2022/11/03 00:04:06;;;;;;;110.43;43.35;;;;;;;14.37;100.00;101366.78;5045968;28;20131;-84
2022/11/03 00:06:32;;;;;;;108.25;43.70;;;;;;;14.38;100.00;101374.50;5058691;28;20488;-83
2022/11/03 00:08:59;;;;;;;127.38;41.67;;;;;;;14.36;100.00;101370.38;5047423;28;20025;-82
2022/11/03 00:11:25;;;;;;;130.88;42.20;;;;;;;14.35;100.00;101373.97;5047083;28;20017;-87
2022/11/03 00:13:51;;;;;;;140.88;44.55;;;;;;;14.33;100.00;101376.72;5049875;28;20189;-82
2022/11/03 00:16:16;;;;;;;172.30;46.15;;;;;;;14.34;100.00;101372.31;5047265;28;20412;-86
2022/11/03 00:18:41;;;;;;;124.97;47.20;;;;;;;14.35;100.00;101371.34;5046993;28;20021;-85
2022/11/03 00:21:12;;;;;;;147.05;47.22;;;;;;;14.33;100.00;101370.66;5046585;28;20032;-82
2022/11/03 00:23:40;;;;;;;171.00;48.60;;;;;;;14.33;100.00;101370.66;5028069;28;20025;-84
2022/11/03 00:26:16;;;;;;;192.85;49.00;;;;;;;14.34;100.00;101372.31;5046721;28;20056;-81
2022/11/03 00:28:44;;;;;;;172.00;49.20;;;;;;;14.34;100.00;101369.69;5038208;28;20043;-82
2022/11/03 00:31:12;;;;;;;154.90;46.40;;;;;;;14.31;100.00;101372.59;5044994;28;20033;-84
2022/11/03 00:33:39;;;;;;;201.73;46.30;;;;;;;14.33;100.00;101370.66;5046719;28;20056;-81
2022/11/03 00:36:06;;;;;;;161.32;49.65;;;;;;;14.31;100.00;101369.97;5047101;28;20510;-86
2022/11/03 00:38:32;;;;;;;120.15;48.38;;;;;;;14.27;100.00;101369.44;5046795;28;20131;-82
2022/11/03 00:41:00;;;;;;;161.07;51.53;;;;;;;14.25;100.00;101372.22;5052796;28;20055;-81
2022/11/03 00:43:26;;;;;;;86.50;42.50;;;;;;;14.22;100.00;101364.63;5062007;28;20064;-83
2022/11/03 00:45:53;;;;;;;111.05;42.70;;;;;;;14.23;100.00;101366.28;5047052;28;20082;-81
2022/11/03 00:48:33;;;;;;;100.03;42.17;;;;;;;14.25;100.00;101364.34;5047173;28;20029;-83
2022/11/03 00:51:18;;;;;;;97.95;41.03;;;;;;;14.24;100.00;101360.06;5049200;28;20102;-86
2022/11/03 00:53:45;;;;;;;94.05;37.55;;;;;;;14.26;100.00;101363.38;5036108;28;20072;-81
2022/11/03 00:56:19;;;;;;;100.60;35.80;;;;;;;14.28;100.00;101353.56;5045419;28;20021;-84
2022/11/03 00:58:45;;;;;;;138.80;41.05;;;;;;;14.29;100.00;101367.50;5046866;28;20029;-83
2022/11/03 01:01:13;;;;;;;119.32;42.58;;;;;;;14.26;100.00;101354.69;5045632;28;20130;-85
2022/11/03 01:03:41;;;;;;;105.05;41.92;;;;;;;14.25;100.00;101348.63;5047694;28;20442;-86
2022/11/03 01:08:54;;;;;;;77.10;38.22;;;;;;;14.27;100.00;101351.91;5047291;28;20110;-84
2022/11/03 01:14:07;;;;;;;116.22;42.35;;;;;;;14.28;100.00;101343.09;5039703;28;20102;-83
2022/11/03 01:16:32;;;;;;;85.32;39.58;;;;;;;14.25;100.00;101338.13;5029087;28;20067;-85
2022/11/03 01:18:58;;;;;;;80.97;37.33;;;;;;;14.22;100.00;101334.97;5046594;28;20029;-83
2022/11/03 01:21:23;;;;;;;56.72;31.40;;;;;;;14.20;100.00;101327.25;5047102;28;20096;-85
2022/11/03 01:23:49;;;;;;;64.25;30.23;;;;;;;14.21;100.00;101323.66;5045746;28;20374;-83
2022/11/03 01:26:15;;;;;;;64.28;31.60;;;;;;;14.25;100.00;101327.66;5029017;28;20112;-84
2022/11/03 01:28:43;;;;;;;60.25;33.33;;;;;;;14.25;100.00;101322.41;5058228;28;20029;-85
2022/11/03 01:31:16;;;;;;;70.82;33.80;;;;;;;14.22;100.00;101321.88;5047783;28;20029;-86
2022/11/03 01:33:44;;;;;;;80.72;32.30;;;;;;;14.21;100.00;101320.22;5028292;28;20576;-85
2022/11/03 01:36:11;;;;;;;86.78;34.05;;;;;;;14.20;100.00;101318.56;5047827;28;20026;-85
2022/11/03 01:38:36;;;;;;;99.65;35.10;;;;;;;14.19;100.00;101309.06;5047858;28;20013;-83
2022/11/03 01:41:04;;;;;;;90.95;40.83;;;;;;;14.16;100.00;101304.97;5048492;28;20059;-84
2022/11/03 01:43:33;;;;;;;88.25;39.58;;;;;;;14.19;100.00;101306.44;5063821;28;20032;-83
2022/11/03 01:46:05;;;;;;;92.32;43.20;;;;;;;14.20;100.00;101308.91;5059545;28;20112;-82
2022/11/03 01:48:33;;;;;;;98.38;41.95;;;;;;;14.23;100.00;101306.00;5068529;28;20021;-83
2022/11/03 01:50:59;;;;;;;98.80;36.47;;;;;;;14.25;100.00;101305.84;5067870;28;20122;-84
2022/11/03 01:53:28;;;;;;;88.65;40.85;;;;;;;14.25;100.00;101300.63;5062975;28;20107;-86
2022/11/03 01:55:55;;;;;;;106.28;43.35;;;;;;;14.26;100.00;101294.41;5039751;28;20123;-85
2022/11/03 01:58:24;;;;;;;93.63;42.83;;;;;;;14.23;100.00;101287.66;5050866;28;20029;-82
2022/11/03 02:00:55;;;;;;;105.00;43.33;;;;;;;14.22;100.00;101283.38;5057412;28;20089;-86
2022/11/03 02:03:22;;;;;;;87.78;41.38;;;;;;;14.23;100.00;101282.41;5050630;28;20068;-82
2022/11/03 02:05:50;;;;;;;81.65;35.55;;;;;;;14.22;100.00;101279.94;5049593;28;20059;-81
2022/11/03 02:08:21;;;;;;;129.65;40.28;;;;;;;14.22;100.00;101282.56;5050335;28;20025;-83
2022/11/03 02:10:48;;;;;;;80.72;36.80;;;;;;;14.19;100.00;101288.91;5049330;28;20040;-84
2022/11/03 02:13:22;;;;;;;123.40;38.88;;;;;;;14.16;100.00;101289.25;5063315;28;20040;-83
2022/11/03 02:15:51;;;;;;;122.88;40.30;;;;;;;14.11;100.00;101288.88;5050257;28;20111;-83
2022/11/03 02:18:20;;;;;;;122.82;37.05;;;;;;;14.09;100.00;101296.03;5050123;28;20029;-85
2022/11/03 02:20:54;;;;;;;107.32;37.83;;;;;;;14.07;100.00;101297.16;5048899;28;20033;-85
2022/11/03 02:23:47;;;;;;;108.70;39.42;;;;;;;14.06;100.00;101287.66;5029704;28;20091;-87
2022/11/03 02:26:14;;;;;;;79.70;37.47;;;;;;;14.05;100.00;101289.44;5010832;28;20206;-84
2022/11/03 02:28:40;;;;;;;181.20;38.45;;;;;;;14.07;100.00;101290.13;5043597;28;20044;-87
2022/11/03 02:31:41;;;;;;;85.30;37.00;;;;;;;14.05;100.00;101286.00;5030010;28;20030;-82
2022/11/03 02:34:16;;;;;;;77.70;36.67;;;;;;;14.03;100.00;101287.94;5022368;28;20049;-84
2022/11/03 02:36:50;;;;;;;83.68;40.42;;;;;;;14.00;100.00;101289.06;5028715;28;20041;-84
2022/11/03 02:39:29;;;;;;;82.03;37.88;;;;;;;13.99;100.00;101282.16;5019630;28;20148;-83
2022/11/03 02:41:58;;;;;;;83.38;38.35;;;;;;;13.99;100.00;101283.97;5028658;28;20029;-85
2022/11/03 02:44:25;;;;;;;84.22;37.38;;;;;;;14.01;100.00;101277.63;5029179;28;20033;-85
2022/11/03 02:46:57;;;;;;;65.97;34.70;;;;;;;14.00;100.00;101275.97;5027572;28;20029;-84
2022/11/03 02:49:22;;;;;;;58.30;33.58;;;;;;;14.00;100.00;101270.72;5028049;28;20044;-84
2022/11/03 02:51:48;;;;;;;63.88;35.05;;;;;;;14.04;100.00;101273.88;5028955;28;20041;-85
2022/11/03 02:54:21;;;;;;;58.30;32.13;;;;;;;14.03;100.00;101267.81;5028579;28;20025;-82
2022/11/03 02:56:58;;;;;;;54.45;27.75;;;;;;;14.05;100.00;101265.88;5028437;28;20025;-82
2022/11/03 02:59:30;;;;;;;67.97;30.73;;;;;;;14.08;100.00;101262.94;5035118;28;20033;-84
2022/11/03 03:02:07;;;;;;;97.28;30.13;;;;;;;14.08;100.00;101265.56;5028977;28;20037;-83
2022/11/03 03:04:54;;;;;;;82.25;31.27;;;;;;;14.05;100.00;101265.88;5028813;28;20088;-83
2022/11/03 03:07:31;;;;;;;81.68;30.48;;;;;;;14.03;100.00;101265.19;5009277;28;20084;-81
2022/11/03 03:10:02;;;;;;;77.35;31.52;;;;;;;14.03;100.00;101266.97;5030679;28;20030;-83
2022/11/03 03:12:29;;;;;;;64.22;29.73;;;;;;;14.03;100.00;101262.56;5029910;28;20029;-81
2022/11/03 03:14:58;;;;;;;55.03;28.13;;;;;;;13.98;100.00;101256.94;5016607;28;20307;-82
2022/11/03 03:17:42;;;;;;;71.50;29.30;;;;;;;14.01;100.00;101248.78;5028640;28;20397;-85
2022/11/03 03:20:20;;;;;;;50.90;29.23;;;;;;;13.98;100.00;101251.69;5028339;28;20056;-84
2022/11/03 03:22:55;;;;;;;58.90;29.02;;;;;;;14.00;100.00;101252.38;5014906;28;20058;-83
2022/11/03 03:25:25;;;;;;;47.17;25.13;;;;;;;14.00;100.00;101246.31;5047402;28;20076;-86
2022/11/03 03:28:01;;;;;;;46.47;24.73;;;;;;;14.02;100.00;101247.00;5031976;28;20090;-86
2022/11/03 03:30:29;;;;;;;49.45;23.25;;;;;;;14.00;100.00;101246.31;5048320;28;20029;-86
2022/11/03 03:32:56;;;;;;;76.05;28.38;;;;;;;13.97;100.00;101250.06;5047951;28;20104;-86
2022/11/03 03:35:25;;;;;;;78.50;27.50;;;;;;;13.94;100.00;101250.34;5046845;28;20028;-86
2022/11/03 03:37:56;;;;;;;43.58;26.17;;;;;;;13.92;100.00;101247.06;5048176;28;20036;-84
2022/11/03 03:40:43;;;;;;;82.60;27.88;;;;;;;13.86;100.00;101237.97;5029888;28;20078;-85
2022/11/03 03:43:12;;;;;;;66.35;25.42;;;;;;;13.83;100.00;101242.69;5046944;28;20378;-81
2022/11/03 03:45:37;;;;;;;60.13;24.23;;;;;;;13.81;100.00;101240.22;5048188;28;23094;-81
2022/11/03 03:48:05;;;;;;;56.88;26.35;;;;;;;13.80;100.00;101249.03;5047149;28;20043;-85
2022/11/03 03:50:34;;;;;;;67.88;27.08;;;;;;;13.82;100.00;101246.28;5048194;28;20025;-84
2022/11/03 03:53:01;;;;;;;62.85;26.75;;;;;;;13.81;100.00;101247.25;5048438;28;20497;-81
2022/11/03 03:55:44;;;;;;;43.03;24.58;;;;;;;13.74;100.00;101243.56;5047922;28;20025;-83
2022/11/03 03:58:12;;;;;;;58.10;28.17;;;;;;;13.78;100.00;101245.75;5047560;28;20029;-83
2022/11/03 04:00:39;;;;;;;60.97;30.15;;;;;;;13.81;100.00;101236.78;5047994;28;20028;-84
2022/11/03 04:03:05;;;;;;;60.75;30.02;;;;;;;13.86;100.00;101243.22;5048226;28;20485;-83
2022/11/03 04:05:31;;;;;;;69.32;28.38;;;;;;;13.86;100.00;101242.41;5047364;28;20411;-82
2022/11/03 04:07:57;;;;;;;42.88;26.17;;;;;;;13.81;100.00;101239.38;5048180;28;20028;-81
2022/11/03 04:10:23;;;;;;;43.08;25.00;;;;;;;13.82;100.00;101230.56;5047659;28;20033;-82
2022/11/03 04:23:48;;;;;;;40.28;22.98;;;;;;;13.87;100.00;101217.84;5048657;28;20494;-83
2022/11/03 04:26:16;;;;;;;59.20;25.55;;;;;;;13.84;100.00;101216.34;5030229;28;20017;-86
2022/11/03 04:28:41;;;;;;;60.47;22.77;;;;;;;13.79;100.00;101215.13;5051146;28;20196;-84
2022/11/03 04:31:15;;;;;;;46.67;21.42;;;;;;;13.77;100.00;101222.31;5056224;28;20071;-84
2022/11/03 04:33:42;;;;;;;51.25;23.20;;;;;;;13.76;100.00;101225.91;5046745;28;20375;-83
2022/11/03 04:36:28;;;;;;;60.60;23.48;;;;;;;13.75;100.00;101219.03;5048058;28;20125;-88
2022/11/03 04:38:53;;;;;;;75.70;23.98;;;;;;;13.77;100.00;101219.69;5047015;28;20060;-86
2022/11/03 04:41:27;;;;;;;59.42;24.27;;;;;;;13.75;100.00;101219.03;5029372;28;20029;-83
2022/11/03 04:43:53;;;;;;;47.42;25.33;;;;;;;13.74;100.00;101220.81;5049757;28;20372;-86
2022/11/03 04:46:30;;;;;;;59.30;24.45;;;;;;;13.73;100.00;101218.34;5056045;28;20060;-84
2022/11/03 04:48:59;;;;;;;47.97;22.45;;;;;;;13.74;100.00;101212.13;5047190;28;20037;-87
2022/11/03 04:51:32;;;;;;;39.50;20.95;;;;;;;13.74;100.00;101214.75;5047326;28;20025;-85
2022/11/03 04:54:03;;;;;;;38.30;19.75;;;;;;;13.73;100.00;101213.94;5046008;28;20029;-86
2022/11/03 04:56:29;;;;;;;42.17;21.08;;;;;;;13.73;100.00;101221.78;5047248;28;20021;-85
2022/11/03 04:58:56;;;;;;;45.40;21.10;;;;;;;13.74;100.00;101218.19;5030185;28;20025;-85
2022/11/03 05:01:23;;;;;;;41.90;20.55;;;;;;;13.74;100.00;101222.59;5047306;28;20017;-86
2022/11/03 05:03:52;;;;;;;45.25;21.15;;;;;;;13.74;100.00;101212.13;5047470;28;20029;-82
2022/11/03 05:06:22;;;;;;;29.65;17.27;;;;;;;13.66;100.00;101219.91;5045550;28;20029;-84
2022/11/03 05:08:54;;;;;;;29.77;18.63;;;;;;;13.58;100.00;101215.41;5037842;28;20028;-85
2022/11/03 05:11:31;;;;;;;28.60;17.98;;;;;;;13.52;100.00;101214.19;5047077;28;20418;-81
2022/11/03 05:14:00;;;;;;;28.48;18.95;;;;;;;13.53;100.00;101210.59;5044702;28;20128;-85
2022/11/03 05:16:26;;;;;;;31.25;19.27;;;;;;;13.54;100.00;101220.09;5031036;28;20025;-83
2022/11/03 05:18:51;;;;;;;31.27;17.75;;;;;;;13.53;100.00;101210.59;5045611;28;20501;-85
2022/11/03 05:21:20;;;;;;;31.55;18.13;;;;;;;13.57;100.00;101211.97;5046070;28;20081;-84
2022/11/03 05:23:49;;;;;;;27.52;16.27;;;;;;;13.57;100.00;101206.72;5046451;28;20020;-84
2022/11/03 05:26:34;;;;;;;29.52;17.92;;;;;;;13.56;100.00;101196.41;5058650;28;20024;-84
2022/11/03 05:29:03;;;;;;;26.17;17.83;;;;;;;13.60;100.00;101203.81;5038978;28;20029;-86
2022/11/03 05:31:31;;;;;;;25.08;16.00;;;;;;;13.67;100.00;101200.63;5045485;28;20048;-86
2022/11/03 05:33:59;;;;;;;28.35;17.65;;;;;;;13.65;100.00;101202.56;5047247;28;20116;-86
2022/11/03 05:36:27;;;;;;;38.95;19.10;;;;;;;13.64;100.00;101206.97;5046476;28;20489;-84
2022/11/03 05:38:57;;;;;;;28.42;16.98;;;;;;;13.64;100.00;101203.53;5046145;28;20115;-86
2022/11/03 05:41:25;;;;;;;35.20;18.38;;;;;;;13.66;100.00;101214.69;5053647;28;20025;-87
2022/11/03 05:44:01;;;;;;;24.50;15.75;;;;;;;13.64;100.00;101209.59;5046347;28;20422;-84
2022/11/03 05:46:30;;;;;;;24.73;16.83;;;;;;;13.66;100.00;101214.69;5049602;28;20111;-85
2022/11/03 05:48:59;;;;;;;38.40;18.52;;;;;;;13.65;100.00;101213.03;5045614;28;20037;-84
2022/11/03 05:51:30;;;;;;;30.95;18.15;;;;;;;13.67;100.00;101225.00;5045652;28;20028;-87
2022/11/03 05:53:58;;;;;;;35.42;20.17;;;;;;;13.70;100.00;101221.28;5045887;28;20069;-84
2022/11/03 05:56:24;;;;;;;24.65;17.90;;;;;;;13.68;100.00;101223.22;5047108;28;20031;-82
2022/11/03 05:58:54;;;;;;;34.15;16.85;;;;;;;13.71;100.00;101228.13;5047102;28;20104;-85
2022/11/03 06:01:35;;;;;;;29.42;16.83;;;;;;;13.70;100.00;101219.47;5052285;28;20503;-85
2022/11/03 06:04:17;;;;;;;26.13;16.05;;;;;;;13.72;100.00;101224.53;5039392;28;20033;-86
2022/11/03 06:06:52;;;;;;;24.50;15.80;;;;;;;13.69;100.00;101224.88;5046484;28;20059;-87
2022/11/03 06:09:24;;;;;;;28.65;16.90;;;;;;;13.70;100.00;101231.75;5029691;28;20051;-85
2022/11/03 06:12:00;;;;;;;20.40;14.35;;;;;;;13.64;100.00;101232.34;5045710;28;20040;-82
2022/11/03 06:14:29;;;;;;;23.35;13.80;;;;;;;13.65;100.00;101226.13;5046432;28;20112;-86
2022/11/03 06:16:58;;;;;;;21.42;14.38;;;;;;;13.70;100.00;101226.53;5053669;28;20033;-85
2022/11/03 06:19:34;;;;;;;23.73;15.40;;;;;;;13.77;100.00;101222.31;5054423;28;20052;-82
2022/11/03 06:22:17;;;;;;;23.88;15.75;;;;;;;13.77;100.00;101227.56;5026241;28;20053;-84
2022/11/03 06:24:44;;;;;;;23.60;14.82;;;;;;;13.81;100.00;101221.88;5047141;28;20103;-84
2022/11/03 06:27:22;;;;;;;27.02;16.10;;;;;;;13.85;100.00;101231.09;5046436;28;20492;-87
2022/11/03 06:29:52;;;;;;;27.25;17.10;;;;;;;13.90;100.00;101231.47;5048387;28;20044;-84
2022/11/03 06:32:17;;;;;;;32.08;18.17;;;;;;;13.94;100.00;101234.63;5070517;28;20036;-85
2022/11/03 06:34:55;;;;;;;29.98;16.13;;;;;;;13.96;100.00;101224.81;5056700;28;20037;-84
2022/11/03 06:37:33;;;;;;;26.95;16.83;;;;;;;13.99;100.00;101236.81;5038245;28;20040;-84
2022/11/03 06:40:06;;;;;;;29.40;15.18;;;;;;;14.04;100.00;101232.78;5037738;28;20021;-86
2022/11/03 06:42:32;;;;;;;26.27;16.58;;;;;;;14.06;100.00;101241.31;5029684;28;20028;-83
2022/11/03 06:44:57;;;;;;;26.02;17.95;;;;;;;14.08;100.00;101249.03;5053036;28;20089;-82
2022/11/03 06:47:25;;;;;;;30.58;17.20;;;;;;;14.07;100.00;101250.00;5050365;28;20468;-84
2022/11/03 06:49:54;;;;;;;28.50;16.20;;;;;;;14.08;100.00;101249.03;5050179;28;20021;-85
2022/11/03 06:52:31;;;;;;;24.55;16.20;;;;;;;14.09;100.00;101241.03;5047965;28;20028;-81
2022/11/03 06:55:06;;;;;;;23.75;16.95;;;;;;;14.08;100.00;101246.41;5050135;28;20056;-82
2022/11/03 06:57:36;;;;;;;20.40;14.43;;;;;;;14.01;100.00;101238.31;5049204;28;20075;-87
2022/11/03 07:00:22;;;;;;;20.48;13.02;;;;;;;13.98;100.00;101240.41;5050073;28;20337;-82
2022/11/03 07:03:09;;;;;;;;;;;;;;;13.86;100.00;101237.16;5052672;28;20048;-85
2022/11/03 07:05:35;;;;;;;16.00;10.70;;;;;;;13.87;100.00;101234.38;5050417;28;20284;-83
2022/11/03 07:08:13;;;;;;;18.17;12.68;;;;;;;13.97;100.00;101233.50;5049554;28;20148;-84
2022/11/03 07:10:38;;;;;;;20.10;12.85;;;;;;;13.99;100.00;101232.41;5049048;28;20029;-82
2022/11/03 07:13:11;;;;;;;23.65;13.48;;;;;;;14.08;100.00;101233.31;5049770;28;20037;-82
2022/11/03 07:15:38;;;;;;;22.42;14.13;;;;;;;14.15;100.00;101231.75;5039199;28;20020;-84
2022/11/03 07:18:13;;;;;;;20.02;15.35;;;;;;;14.18;100.00;101224.38;5053062;28;20033;-83
2022/11/03 07:20:39;;;;;;;20.70;13.95;;;;;;;14.23;100.00;101222.13;5037008;28;20024;-85
2022/11/03 07:23:09;;;;;;;27.73;14.85;;;;;;;14.22;100.00;101217.88;5052417;28;20056;-84
2022/11/03 07:25:35;;;;;;;23.38;14.93;;;;;;;14.24;100.00;101221.16;5030616;28;20024;-85
2022/11/03 07:28:01;;;;;;;24.80;14.75;;;;;;;14.26;100.00;101224.47;5048283;28;20315;-84
2022/11/03 07:30:32;;;;;;;19.35;14.57;;;;;;;14.27;100.00;101217.41;5049314;28;20021;-86
2022/11/03 07:33:01;;;;;;;29.33;15.40;;;;;;;14.31;100.00;101223.19;5056496;28;20029;-81
2022/11/03 07:35:33;;;;;;;22.23;15.88;;;;;;;14.32;100.00;101224.84;5054935;28;20040;-81
2022/11/03 07:38:08;;;;;;;26.58;15.88;;;;;;;14.33;100.00;101226.47;5049596;28;20032;-83
2022/11/03 07:40:34;;;;;;;26.95;17.50;;;;;;;14.35;100.00;101221.91;5048764;28;20060;-83
2022/11/03 07:43:07;;;;;;;26.48;17.77;;;;;;;14.40;100.00;101230.16;5053450;28;20523;-82
2022/11/03 07:45:48;;;;;;;21.63;16.23;;;;;;;14.38;100.00;101224.22;5051159;28;20097;-83
2022/11/03 07:48:19;;;;;;;22.17;15.52;;;;;;;14.39;100.00;101223.25;5054679;28;20123;-83
2022/11/03 07:51:25;;;;;;;25.63;16.55;;;;;;;14.39;100.00;101218.03;5034334;28;20017;-82
2022/11/03 07:54:09;;;;;;;21.70;14.20;;;;;;;14.42;100.00;101207.25;5050796;28;20145;-83
2022/11/03 07:56:41;;;;;;;21.45;13.85;;;;;;;14.46;100.00;101211.22;5048215;28;20427;-82
2022/11/03 07:59:12;;;;;;;22.65;14.90;;;;;;;14.50;100.00;101205.53;5048178;28;20488;-83
2022/11/03 08:01:44;;;;;;;18.40;10.80;;;;;;;14.49;100.00;101196.03;5053786;28;20105;-84
2022/11/03 08:04:31;;;;;;;12.77;7.18;;;;;;;14.54;100.00;101201.63;5035455;28;20024;-83
2022/11/03 08:06:57;;;;;;;12.80;8.40;;;;;;;14.59;100.00;101203.81;5048135;28;20052;-83
2022/11/03 08:09:22;;;;;;;17.60;7.95;;;;;;;14.62;100.00;101202.69;5047841;28;20036;-83
2022/11/03 08:11:48;;;;;;;13.85;7.65;;;;;;;14.62;100.00;101203.50;5047172;28;20510;-83
2022/11/03 08:14:14;;;;;;;8.70;6.05;;;;;;;14.66;100.00;101204.81;5048540;28;20580;-83
2022/11/03 08:16:39;;;;;;;14.65;7.38;;;;;;;14.70;100.00;101200.91;5050331;28;20028;-83
2022/11/03 08:19:05;;;;;;;11.55;7.65;;;;;;;14.76;100.00;101208.16;5048054;28;20495;-83
2022/11/03 08:21:31;;;;;;;11.52;7.20;;;;;;;14.79;100.00;101201.78;5042211;28;20045;-83
2022/11/03 08:23:56;;;;;;;13.70;7.43;;;;;;;14.82;100.00;101202.31;5029261;28;20051;-84
2022/11/03 08:26:22;;;;;;;17.38;7.55;;;;;;;14.83;100.00;101201.34;5032464;28;20029;-83
2022/11/03 08:28:47;;;;;;;16.17;6.78;;;;;;;14.82;100.00;101198.88;5028063;28;20030;-82
2022/11/03 08:31:13;;;;;;;13.88;7.40;;;;;;;14.83;100.00;101196.09;5030640;28;20032;-82
2022/11/03 08:33:39;;;;;;;14.65;7.28;;;;;;;14.84;100.00;101189.03;5028421;28;20178;-83
2022/11/03 08:36:05;;;;;;;13.13;7.93;;;;;;;14.79;100.00;101188.69;5011470;28;20044;-83
2022/11/03 08:38:30;;;;;;;13.43;8.80;;;;;;;14.75;100.00;101190.78;5027782;28;20017;-83
2022/11/03 08:40:57;;;;;;;13.85;9.00;;;;;;;14.77;100.00;101180.97;5026787;28;20404;-82
2022/11/03 08:43:23;;;;;;;13.93;9.70;;;;;;;14.82;100.00;101177.88;5027527;28;20025;-82
2022/11/03 08:45:52;;;;;;;15.65;8.68;;;;;;;14.88;100.00;101178.09;5026814;28;20030;-84
2022/11/03 08:48:19;;;;;;;11.68;8.25;;;;;;;14.94;100.00;101185.34;5033966;28;20376;-83
2022/11/03 08:50:45;;;;;;;13.80;9.15;;;;;;;15.03;100.00;101190.63;5026272;28;20018;-83
2022/11/03 08:53:16;;;;;;;13.30;9.57;;;;;;;15.08;100.00;101177.88;5030633;28;20028;-82
2022/11/03 08:55:42;;;;;;;12.00;9.38;;;;;;;15.17;100.00;101176.91;5029459;28;20481;-83
2022/11/03 08:58:08;;;;;;;13.75;8.93;;;;;;;15.16;100.00;101176.09;5028199;28;20029;-83
2022/11/03 09:00:35;;;;;;;13.00;8.35;;;;;;;15.18;100.00;101168.06;5028422;28;20139;-82
2022/11/03 09:03:00;;;;;;;14.98;8.15;;;;;;;15.23;100.00;101171.03;5026899;28;20531;-82
2022/11/03 09:05:25;;;;;;;14.40;8.32;;;;;;;15.26;100.00;101161.03;5032224;28;20053;-81
2022/11/03 09:07:51;;;;;;;9.50;6.88;;;;;;;15.24;100.00;101162.19;5027087;28;20075;-81
2022/11/03 09:10:16;;;;;;;12.27;7.80;;;;;;;15.26;100.00;101161.03;5027107;28;20029;-81
2022/11/03 09:12:42;;;;;;;12.73;7.75;;;;;;;15.30;100.00;101158.94;5025443;28;20107;-82
2022/11/03 09:15:08;;;;;;;12.55;8.85;;;;;;;15.35;100.00;101159.28;5027392;28;20034;-81
2022/11/03 09:17:34;;;;;;;13.07;9.18;;;;;;;15.40;100.00;101156.19;5037578;28;20090;-84
2022/11/03 09:20:00;;;;;;;13.10;9.43;;;;;;;15.45;100.00;101159.16;5029000;28;20021;-82
2022/11/03 09:22:25;;;;;;;16.30;8.32;;;;;;;15.47;100.00;101150.13;5030485;28;20503;-83
2022/11/03 09:24:50;;;;;;;13.23;8.23;;;;;;;15.47;100.00;101144.88;5039190;28;20156;-84
2022/11/03 09:27:16;;;;;;;13.23;8.63;;;;;;;15.51;100.00;101146.22;5036411;28;20383;-82
2022/11/03 09:29:42;;;;;;;13.30;8.45;;;;;;;15.56;100.00;101143.09;5047871;28;20023;-84
2022/11/03 09:32:07;;;;;;;13.30;7.57;;;;;;;15.64;100.00;101139.69;5040707;28;20021;-83
2022/11/03 09:34:33;;;;;;;10.80;7.60;;;;;;;15.64;100.00;101142.31;5040494;28;20033;-83
2022/11/03 09:36:58;;;;;;;12.75;6.88;;;;;;;15.67;100.00;101142.81;5044277;28;20025;-84
2022/11/03 09:39:23;;;;;;;9.60;6.97;;;;;;;15.72;100.00;101143.16;5037938;28;20450;-83
2022/11/03 09:41:50;;;;;;;12.65;7.05;;;;;;;15.74;100.00;101133.31;5047343;28;20053;-84
2022/11/03 09:44:16;;;;;;;14.88;7.95;;;;;;;15.79;100.00;101136.25;5037762;28;20036;-83
2022/11/03 09:46:41;;;;;;;11.60;7.75;;;;;;;15.78;100.00;101134.63;5046228;28;20535;-84
2022/11/03 09:49:09;;;;;;;13.63;8.07;;;;;;;15.82;100.00;101138.56;5046587;28;20059;-84
2022/11/03 09:51:35;;;;;;;17.13;8.23;;;;;;;15.92;100.00;101133.16;5046567;28;20025;-83
2022/11/03 09:54:03;;;;;;;12.93;7.60;;;;;;;15.95;100.00;101135.47;5040964;28;20051;-82
2022/11/03 09:56:30;;;;;;;10.93;6.72;;;;;;;15.97;100.00;101136.13;5046942;28;20021;-84
2022/11/03 09:58:55;;;;;;;10.50;7.22;;;;;;;15.96;100.00;101131.84;5047087;28;20052;-84
2022/11/03 10:01:22;;;;;;;10.68;6.97;;;;;;;15.95;100.00;101124.13;5047089;28;20469;-84
2022/11/03 10:03:48;;;;;;;17.85;8.10;;;;;;;15.97;100.00;101117.72;5041185;28;20033;-83
2022/11/03 10:06:15;;;;;;;11.15;7.45;;;;;;;15.99;100.00;101115.75;5049424;28;20047;-83
2022/11/03 10:08:43;;;;;;;12.40;7.20;;;;;;;16.03;100.00;101105.75;5051361;28;20074;-83
2022/11/03 10:11:09;;;;;;;9.57;6.55;;;;;;;16.02;100.00;101104.94;5050568;28;20025;-84
2022/11/03 10:13:41;;;;;;;10.15;6.28;;;;;;;16.08;100.00;101106.88;5022983;28;20519;-83
2022/11/03 10:16:09;;;;;;;15.60;6.88;;;;;;;16.12;100.00;101104.72;5035140;28;20025;-84
2022/11/03 10:18:35;;;;;;;9.55;6.85;;;;;;;16.17;100.00;101102.44;5049261;28;20273;-83
2022/11/03 10:21:11;;;;;;;8.82;6.03;;;;;;;16.16;100.00;101103.41;5050369;28;20134;-84
2022/11/03 10:23:36;;;;;;;;;;;;;;;16.10;100.00;101097.00;5051539;28;20086;-83
2022/11/03 10:26:17;;;;;;;12.77;5.43;;;;;;;16.19;100.00;101085.50;5032074;28;19920;-84
2022/11/03 10:29:08;;;;;;;12.30;5.43;;;;;;;16.27;100.00;101077.63;5026793;28;20040;-84
2022/11/03 10:31:35;;;;;;;7.22;5.15;;;;;;;16.37;100.00;101072.19;5048793;28;20033;-84
2022/11/03 10:34:01;;;;;;;7.05;4.20;;;;;;;16.41;100.00;101068.22;5050376;28;20099;-84
2022/11/03 10:36:29;;;;;;;9.95;3.80;;;;;;;16.45;100.00;101068.72;5050228;28;20044;-84
2022/11/03 10:38:55;;;;;;;6.90;4.78;;;;;;;16.42;100.00;101061.16;5040979;28;20066;-84
2022/11/03 10:41:28;;;;;;;7.63;5.00;;;;;;;16.42;100.00;101056.72;5042806;28;20143;-84
2022/11/03 10:44:03;;;;;;;7.70;4.80;;;;;;;16.47;100.00;101053.59;5032030;28;20029;-84
2022/11/03 10:46:29;;;;;;;6.90;4.80;;;;;;;16.53;100.00;101051.13;5030099;28;20048;-84
2022/11/03 10:49:02;;;;;;;10.40;4.63;;;;;;;16.58;100.00;101040.06;5046153;28;20058;-84
2022/11/03 10:51:28;;;;;;;7.63;5.20;;;;;;;16.70;100.00;101046.63;5064986;28;20404;-84
2022/11/03 10:53:55;;;;;;;10.27;4.95;;;;;;;16.80;100.00;101044.63;5062486;28;20040;-84
2022/11/03 10:56:20;;;;;;;9.85;5.15;;;;;;;16.85;100.00;101033.59;5062774;28;20114;-84
2022/11/03 10:58:46;;;;;;;8.05;5.03;;;;;;;16.84;100.00;101026.69;5046093;28;20361;-84
2022/11/03 11:01:11;;;;;;;7.38;3.85;;;;;;;16.78;100.00;101030.00;5031486;28;20377;-83
2022/11/03 11:03:43;;;;;;;5.63;4.15;;;;;;;16.78;100.00;101020.28;5046076;28;20068;-84
2022/11/03 11:06:19;;;;;;;6.00;3.95;;;;;;;16.85;100.00;101029.13;5031445;28;20086;-84
2022/11/03 11:08:44;;;;;;;6.28;4.35;;;;;;;16.90;100.00;101015.47;5035713;28;20033;-84
2022/11/03 11:11:17;;;;;;;9.88;4.65;;;;;;;16.98;100.00;101014.59;5045474;28;20036;-84
2022/11/03 11:13:42;;;;;;;7.63;4.50;;;;;;;16.96;100.00;101003.44;5050025;28;20029;-84
2022/11/03 11:17:06;;;;;;;10.88;4.90;;;;;;;16.91;100.00;101004.75;5048897;28;20032;-84
2022/11/03 11:20:10;;;;;;;9.75;5.00;;;;;;;16.97;100.00;101005.06;4998136;28;20053;-84
2022/11/03 11:22:35;;;;;;;8.23;5.32;;;;;;;17.03;100.00;101007.81;5049414;28;20091;-84
2022/11/03 11:25:02;;;;;;;7.63;4.65;;;;;;;16.98;100.00;100997.00;5049059;28;20104;-84
2022/11/03 11:27:33;;;;;;;7.63;4.90;;;;;;;17.06;100.00;100996.13;5048046;28;20124;-84
2022/11/03 11:30:00;;;;;;;8.52;5.68;;;;;;;17.12;100.00;100992.78;5055571;28;20465;-84
2022/11/03 11:32:37;;;;;;;10.98;5.80;;;;;;;17.15;100.00;100990.63;5051024;28;20329;-84
2022/11/03 11:35:03;;;;;;;8.32;5.97;;;;;;;17.17;100.00;100987.81;5052609;28;20029;-84